createdAt,value
2023-01-19T00:03:16.485Z,42.10
2023-01-19T00:08:19.788Z,23.43
2023-01-19T00:13:35.439Z,27.98
2023-01-19T00:30:05.558Z,34.78
2023-01-19T00:35:51.034Z,48.15
2023-01-19T00:41:09.876Z,25.98
2023-01-19T00:46:30.219Z,23.55
2023-01-19T00:52:26.649Z,38.87
2023-01-19T00:58:14.573Z,39.40
2023-01-19T01:54:18.004Z,20.52
2023-01-19T02:01:44.284Z,26.90
2023-01-19T02:19:47.052Z,24.63
2023-01-19T02:25:39.677Z,38.95
2023-01-19T02:31:43.194Z,35.95
2023-01-19T02:37:32.811Z,32.40
2023-01-19T02:43:21.260Z,25.45
2023-01-19T02:48:45.762Z,25.98
2023-01-19T02:54:10.332Z,27.92
2023-01-19T03:00:00.531Z,28.88
2023-01-19T03:05:38.424Z,21.48
2023-01-19T03:11:14.500Z,23.98
2023-01-19T03:17:01.706Z,28.15
2023-01-19T03:22:24.921Z,26.98
2023-01-19T03:28:32.043Z,24.10
2023-01-19T03:33:42.564Z,19.40
2023-01-19T03:39:23.281Z,17.58
2023-01-19T03:44:38.866Z,15.63
2023-01-19T04:08:10.276Z,15.20
2023-01-19T04:13:20.008Z,20.75
2023-01-19T04:18:46.171Z,16.58
2023-01-19T04:24:04.132Z,16.55
2023-01-19T04:29:36.010Z,15.43
2023-01-19T04:40:46.986Z,13.63
2023-01-19T04:46:33.824Z,13.38
2023-01-19T04:52:35.184Z,24.20
2023-01-19T05:54:08.517Z,12.85
2023-01-19T05:59:24.171Z,10.07
2023-01-19T06:04:27.147Z,10.98
2023-01-19T06:09:36.343Z,11.60
2023-01-19T06:14:41.392Z,10.77
2023-01-19T06:19:48.643Z,11.93
2023-01-19T06:24:56.000Z,12.00
2023-01-19T06:30:02.236Z,12.77
2023-01-19T06:35:07.922Z,12.57
2023-01-19T06:40:13.636Z,11.98
2023-01-19T06:45:18.389Z,13.40
2023-01-19T06:50:20.855Z,13.75
2023-01-19T06:55:23.584Z,16.02
2023-01-19T07:00:31.036Z,13.88
2023-01-19T07:05:35.969Z,15.97
2023-01-19T07:11:25.050Z,13.20
2023-01-19T07:16:09.143Z,11.30
2023-01-19T07:21:11.640Z,13.75
2023-01-19T07:26:15.442Z,19.85
2023-01-19T07:31:24.516Z,33.28
2023-01-19T07:36:27.073Z,43.35
2023-01-19T07:41:30.336Z,20.38
2023-01-19T07:46:32.925Z,20.67
2023-01-19T07:51:36.315Z,47.45
2023-01-19T07:56:39.167Z,20.98
2023-01-19T08:01:43.170Z,28.65
2023-01-19T08:06:46.623Z,33.47
2023-01-19T08:11:49.036Z,59.28
2023-01-19T08:16:51.597Z,63.95
2023-01-19T08:21:55.874Z,76.20
2023-01-19T08:27:00.073Z,64.63
2023-01-19T08:32:09.479Z,47.63
2023-01-19T08:37:11.983Z,30.55
2023-01-19T08:42:16.432Z,27.08
2023-01-19T08:47:26.005Z,30.33
2023-01-19T08:52:39.095Z,25.70
2023-01-19T08:58:16.127Z,29.25
2023-01-19T09:03:26.006Z,32.70
2023-01-19T09:08:35.403Z,25.58
2023-01-19T09:13:40.567Z,22.15
2023-01-19T09:18:46.338Z,30.80
2023-01-19T09:23:49.488Z,30.38
2023-01-19T09:28:54.965Z,25.60
2023-01-19T09:33:59.136Z,22.70
2023-01-19T09:39:04.139Z,29.27
2023-01-19T09:44:09.132Z,35.17
2023-01-19T09:49:15.337Z,65.57
2023-01-19T09:54:54.617Z,74.28
2023-01-19T10:00:04.691Z,41.10
2023-01-19T10:05:48.798Z,23.52
2023-01-19T10:10:55.548Z,28.42
2023-01-19T10:16:20.646Z,20.67
2023-01-19T10:21:27.572Z,47.33
2023-01-19T10:26:55.423Z,50.45
2023-01-19T10:32:34.303Z,34.45
2023-01-19T10:37:43.604Z,20.67
2023-01-19T10:42:47.357Z,34.20
2023-01-19T10:48:01.467Z,24.83
2023-01-19T10:53:08.532Z,39.33
2023-01-19T10:58:51.814Z,25.08
2023-01-19T11:04:05.921Z,25.25
2023-01-19T11:09:16.944Z,37.60
2023-01-19T11:14:27.466Z,30.75
2023-01-19T11:25:28.545Z,32.65
2023-01-19T11:30:45.124Z,34.65
2023-01-19T11:35:54.530Z,28.65
2023-01-19T11:41:10.071Z,27.27
2023-01-19T11:46:17.949Z,30.25
2023-01-19T11:51:22.598Z,34.38
2023-01-19T11:56:31.711Z,36.42
2023-01-19T12:01:44.497Z,31.38
2023-01-19T12:06:50.440Z,40.73
2023-01-19T12:12:08.104Z,31.20
2023-01-19T12:17:24.333Z,31.80
2023-01-19T12:22:31.207Z,37.08
2023-01-19T12:27:43.642Z,48.28
2023-01-19T12:32:46.222Z,45.53
2023-01-19T12:37:50.518Z,23.10
2023-01-19T12:43:01.915Z,29.10
2023-01-19T12:48:04.962Z,28.13
2023-01-19T12:53:19.245Z,34.47
2023-01-19T12:58:23.637Z,28.67
2023-01-19T13:03:26.870Z,34.90
2023-01-19T13:08:55.838Z,72.82
2023-01-19T13:13:58.503Z,74.88
2023-01-19T13:19:14.940Z,64.10
2023-01-19T13:24:22.565Z,38.60
2023-01-19T13:29:40.798Z,43.08
2023-01-19T13:34:52.180Z,34.42
2023-01-19T13:39:55.948Z,36.90
2023-01-19T13:45:00.302Z,26.80
2023-01-19T13:50:05.576Z,32.58
2023-01-19T13:55:14.133Z,42.00
2023-01-19T14:00:19.823Z,47.92
2023-01-19T14:05:35.764Z,50.35
2023-01-19T14:10:44.599Z,39.60
2023-01-19T14:15:49.286Z,31.23
2023-01-19T14:21:06.200Z,23.10
2023-01-19T14:26:43.598Z,19.67
2023-01-19T14:31:48.475Z,24.52
2023-01-19T14:36:51.794Z,33.20
2023-01-19T14:41:54.527Z,36.45
2023-01-19T14:47:00.107Z,78.20
2023-01-19T14:52:17.502Z,54.25
2023-01-19T14:57:23.303Z,35.10
2023-01-19T15:02:26.023Z,64.28
2023-01-19T15:07:28.972Z,70.30
2023-01-19T15:12:31.394Z,80.47
2023-01-19T15:17:34.153Z,96.07
2023-01-19T15:22:36.569Z,74.87
2023-01-19T15:27:41.854Z,42.15
2023-01-19T15:32:44.473Z,39.35
2023-01-19T15:37:47.958Z,34.27
2023-01-19T15:42:50.553Z,39.70
2023-01-19T15:47:52.921Z,36.40
2023-01-19T15:52:55.399Z,31.83
2023-01-19T15:58:01.694Z,28.90
2023-01-19T16:03:05.192Z,27.15
2023-01-19T16:08:07.542Z,29.15
2023-01-19T16:13:24.980Z,32.03
2023-01-19T16:18:27.431Z,33.53
2023-01-19T16:23:29.994Z,38.80
2023-01-19T16:28:37.146Z,38.13
2023-01-19T16:33:42.781Z,37.53
2023-01-19T16:38:45.096Z,32.03
2023-01-19T16:43:52.089Z,24.10
2023-01-19T16:49:13.405Z,27.52
2023-01-19T16:54:19.665Z,27.10
2023-01-19T16:59:25.136Z,21.77
2023-01-19T17:04:27.996Z,23.92
2023-01-19T17:09:30.795Z,21.75
2023-01-19T17:14:33.642Z,16.58
2023-01-19T17:19:37.518Z,22.47
2023-01-19T17:24:43.401Z,22.67
2023-01-19T17:29:45.903Z,25.27
2023-01-19T17:34:51.149Z,26.60
2023-01-19T17:39:56.017Z,25.48
2023-01-19T17:44:58.314Z,26.35
2023-01-19T17:50:00.799Z,29.98
2023-01-19T17:55:03.810Z,17.83
2023-01-19T18:00:07.623Z,28.55
2023-01-19T18:05:14.850Z,24.35
2023-01-19T18:10:17.460Z,26.17
2023-01-19T18:15:19.800Z,27.75
2023-01-19T18:20:22.130Z,38.17
2023-01-19T18:25:24.569Z,31.05
2023-01-19T18:30:26.962Z,30.30
2023-01-19T18:35:29.683Z,32.25
2023-01-19T18:40:32.150Z,25.93
2023-01-19T18:45:34.890Z,49.67
2023-01-19T18:50:37.933Z,66.07
2023-01-19T18:55:40.522Z,63.75
2023-01-19T19:00:46.988Z,71.45
2023-01-19T19:05:49.416Z,70.05
2023-01-19T19:10:51.929Z,71.85
2023-01-19T19:16:13.754Z,61.38
2023-01-19T19:21:18.880Z,63.03
2023-01-19T19:26:22.484Z,63.00
2023-01-19T19:31:27.704Z,65.60
2023-01-19T19:36:33.694Z,86.13
2023-01-19T19:41:38.538Z,79.82
2023-01-19T19:46:43.572Z,82.40
2023-01-19T19:51:48.186Z,66.38
2023-01-19T19:56:52.401Z,69.38
2023-01-19T20:01:56.350Z,54.53
2023-01-19T20:07:00.182Z,57.87
2023-01-19T20:12:02.789Z,93.67
2023-01-19T20:17:05.947Z,84.05
2023-01-19T20:22:09.147Z,78.70
2023-01-19T20:27:13.544Z,79.18
2023-01-19T20:32:19.862Z,83.43
2023-01-19T20:37:26.222Z,89.70
2023-01-19T20:42:29.083Z,69.43
2023-01-19T20:47:31.754Z,49.72
2023-01-19T20:52:35.392Z,46.58
2023-01-19T21:02:40.445Z,41.97
2023-01-19T21:07:42.912Z,40.77
2023-01-19T21:12:45.527Z,59.72
2023-01-19T21:17:48.434Z,91.55
2023-01-19T21:22:53.715Z,101.87
2023-01-19T21:27:56.339Z,78.28
2023-01-19T21:32:58.638Z,82.13
2023-01-19T21:38:03.015Z,82.82
2023-01-19T21:43:05.931Z,81.25
2023-01-19T21:48:08.957Z,86.40
2023-01-19T21:53:11.738Z,76.15
2023-01-19T21:58:14.089Z,329.57
2023-01-19T22:03:17.160Z,791.65
2023-01-19T22:08:19.609Z,278.40
2023-01-19T22:13:25.103Z,137.15
2023-01-19T22:18:27.549Z,94.45
2023-01-19T22:23:29.911Z,71.90
2023-01-19T22:28:32.616Z,64.00
2023-01-19T22:33:36.995Z,56.47
2023-01-19T22:38:40.195Z,81.82
2023-01-19T22:43:43.125Z,66.65
2023-01-19T22:48:46.686Z,53.13
2023-01-19T22:53:49.425Z,50.70
2023-01-19T22:58:52.749Z,43.07
2023-01-19T23:03:56.835Z,55.42
2023-01-19T23:09:01.294Z,53.72
2023-01-19T23:14:06.883Z,50.25
2023-01-19T23:19:11.468Z,44.63
2023-01-19T23:24:13.965Z,39.55
2023-01-19T23:29:16.607Z,23.57
2023-01-19T23:34:19.211Z,32.97
2023-01-19T23:39:22.755Z,23.37
2023-01-19T23:44:25.465Z,32.53
2023-01-19T23:49:27.924Z,32.47
2023-01-19T23:54:30.191Z,35.22
2023-01-19T23:59:34.444Z,33.10
